Terminal Aerodrome Forecast
Issued by NWS

Home | Current Version | Previous Version | Graphics & Text | Print | Product List | Glossary On
Versions: 1 2 3 4 5 6 7 8 9 10 11 12 13 14 15 16
000
FTUS43 KMPX 182320
TAFAXN
TAF
KAXN 182320Z 1900/1924 14013KT P6SM OVC008
     FM191600 15018G25KT P6SM OVC015
     FM191900 14020G30KT P6SM BKN035=

USA.gov is the U.S. government's official web portal to all federal, state and local government web resources and services.